Time,TemperatureF,DewpointF,PressureIn,WindDirection,WindDirectionDegrees,WindSpeedMPH,WindSpeedGustMPH,Humidity,HourlyPrecipIn,Conditions,Clouds,dailyrainin,SoftwareType,DateUTC
2013-02-11 00:12:00,37.1,26.0,30.00,West,279,18.0,24.0,64,0.00,,,0.26,weatherlink.com 1.10,2013-02-11 06:12:00,
2013-02-11 00:27:00,36.5,26.0,30.01,WNW,299,11.0,22.0,66,0.00,,,0.26,weatherlink.com 1.10,2013-02-11 06:27:00,
2013-02-11 00:42:00,36.1,26.0,30.01,WSW,244,10.0,19.0,67,0.00,,,0.26,weatherlink.com 1.10,2013-02-11 06:42:00,
2013-02-11 00:57:00,35.9,26.0,30.01,NW,312,13.0,17.0,67,0.00,,,0.26,weatherlink.com 1.10,2013-02-11 06:57:00,
2013-02-11 01:12:00,35.8,26.0,30.01,WNW,285,20.0,20.0,68,0.00,,,0.26,weatherlink.com 1.10,2013-02-11 07:12:00,
2013-02-11 01:27:00,35.6,26.0,30.01,West,264,10.0,19.0,69,0.00,,,0.26,weatherlink.com 1.10,2013-02-11 07:27:00,
2013-02-11 01:42:00,34.9,26.0,30.02,West,272,7.0,14.0,71,0.00,,,0.26,weatherlink.com 1.10,2013-02-11 07:42:00,
2013-02-11 01:57:00,34.4,27.0,30.02,West,261,8.0,14.0,73,0.00,,,0.26,weatherlink.com 1.10,2013-02-11 07:57:00,
2013-02-11 02:12:00,34.6,27.0,30.02,West,260,9.0,18.0,74,0.00,,,0.26,weatherlink.com 1.10,2013-02-11 08:12:00,
2013-02-11 02:27:00,34.3,27.0,30.02,WNW,297,12.0,17.0,75,0.00,,,0.26,weatherlink.com 1.10,2013-02-11 08:27:00,
2013-02-11 02:42:00,33.7,27.0,30.02,WSW,249,4.0,15.0,76,0.00,,,0.26,weatherlink.com 1.10,2013-02-11 08:42:00,
2013-02-11 02:57:00,33.4,27.0,30.02,WSW,258,3.0,11.0,77,0.00,,,0.26,weatherlink.com 1.10,2013-02-11 08:57:00,
2013-02-11 03:12:00,33.4,27.0,30.01,West,268,7.0,13.0,77,0.00,,,0.26,weatherlink.com 1.10,2013-02-11 09:12:00,
2013-02-11 03:27:00,33.1,27.0,30.01,WSW,257,9.0,11.0,78,0.00,,,0.00,weatherlink.com 1.10,2013-02-11 09:27:00,
2013-02-11 03:42:00,33.5,27.0,30.01,West,275,12.0,14.0,76,0.00,,,0.00,weatherlink.com 1.10,2013-02-11 09:42:00,
2013-02-11 03:57:00,33.4,27.0,30.01,WSW,252,11.0,16.0,76,0.00,,,0.00,weatherlink.com 1.10,2013-02-11 09:57:00,
2013-02-11 04:12:00,33.2,26.0,30.02,West,269,7.0,17.0,76,0.00,,,0.00,weatherlink.com 1.10,2013-02-11 10:12:00,
2013-02-11 04:27:00,33.4,27.0,30.03,West,266,6.0,17.0,76,0.00,,,0.00,weatherlink.com 1.10,2013-02-11 10:27:00,
2013-02-11 04:42:00,32.8,26.0,30.04,WSW,237,10.0,12.0,77,0.00,,,0.00,weatherlink.com 1.10,2013-02-11 10:42:00,
2013-02-11 04:58:00,32.6,26.0,30.05,West,276,7.0,13.0,77,0.00,,,0.00,weatherlink.com 1.10,2013-02-11 10:58:00,
2013-02-11 05:13:00,32.4,26.0,30.06,WSW,254,4.0,13.0,78,0.00,,,0.00,weatherlink.com 1.10,2013-02-11 11:13:00,
2013-02-11 05:28:00,32.1,26.0,30.07,WNW,290,11.0,14.0,79,0.00,,,0.00,weatherlink.com 1.10,2013-02-11 11:28:00,
2013-02-11 05:43:00,32.0,26.0,30.08,SW,223,6.0,14.0,79,0.00,,,0.00,weatherlink.com 1.10,2013-02-11 11:43:00,
2013-02-11 05:58:00,31.6,26.0,30.09,West,262,9.0,13.0,80,0.00,,,0.00,weatherlink.com 1.10,2013-02-11 11:58:00,
2013-02-11 06:13:00,31.5,26.0,30.10,SW,236,6.0,15.0,80,0.00,,,0.00,weatherlink.com 1.10,2013-02-11 12:13:00,
2013-02-11 06:28:00,31.3,26.0,30.10,WSW,248,3.0,14.0,80,0.00,,,0.00,weatherlink.com 1.10,2013-02-11 12:28:00,
2013-02-11 06:43:00,31.1,26.0,30.11,WSW,240,7.0,11.0,81,0.00,,,0.00,weatherlink.com 1.10,2013-02-11 12:43:00,
2013-02-11 06:58:00,30.9,26.0,30.11,West,261,9.0,12.0,81,0.00,,,0.00,weatherlink.com 1.10,2013-02-11 12:58:00,
2013-02-11 07:13:00,30.8,26.0,30.12,WSW,257,12.0,13.0,81,0.00,,,0.00,weatherlink.com 1.10,2013-02-11 13:13:00,
2013-02-11 07:28:00,30.8,26.0,30.13,WSW,255,10.0,11.0,81,0.00,,,0.00,weatherlink.com 1.10,2013-02-11 13:28:00,
2013-02-11 07:43:00,31.1,26.0,30.13,WNW,284,12.0,14.0,81,0.00,,,0.00,weatherlink.com 1.10,2013-02-11 13:43:00,
2013-02-11 07:58:00,31.7,26.0,30.13,WSW,240,7.0,14.0,80,0.00,,,0.00,weatherlink.com 1.10,2013-02-11 13:58:00,
2013-02-11 08:13:00,32.2,26.0,30.14,West,264,13.0,17.0,79,0.00,,,0.00,weatherlink.com 1.10,2013-02-11 14:13:00,
2013-02-11 08:28:00,33.0,27.0,30.15,WSW,248,11.0,16.0,78,0.00,,,0.00,weatherlink.com 1.10,2013-02-11 14:28:00,
2013-02-11 08:43:00,33.8,27.0,30.16,NNW,348,12.0,19.0,76,0.00,,,0.00,weatherlink.com 1.10,2013-02-11 14:43:00,
2013-02-11 08:58:00,34.7,27.0,30.16,WNW,289,14.0,20.0,74,0.00,,,0.00,weatherlink.com 1.10,2013-02-11 14:58:00,
2013-02-11 09:13:00,35.4,28.0,30.17,West,278,12.0,17.0,73,0.00,,,0.00,weatherlink.com 1.10,2013-02-11 15:13:00,
2013-02-11 09:28:00,36.0,27.0,30.17,WNW,302,7.0,16.0,71,0.00,,,0.00,weatherlink.com 1.10,2013-02-11 15:28:00,
2013-02-11 09:43:00,37.3,28.0,30.18,WNW,293,10.0,16.0,68,0.00,,,0.00,weatherlink.com 1.10,2013-02-11 15:43:00,
2013-02-11 09:58:00,37.7,28.0,30.18,NW,317,10.0,16.0,68,0.00,,,0.00,weatherlink.com 1.10,2013-02-11 15:58:00,
2013-02-11 10:13:00,38.5,28.0,30.18,NW,306,9.0,14.0,66,0.00,,,0.00,weatherlink.com 1.10,2013-02-11 16:13:00,
2013-02-11 10:28:00,39.3,28.0,30.19,West,275,10.0,16.0,65,0.00,,,0.00,weatherlink.com 1.10,2013-02-11 16:28:00,
2013-02-11 10:44:00,39.9,28.0,30.18,WNW,283,12.0,15.0,63,0.00,,,0.00,weatherlink.com 1.10,2013-02-11 16:44:00,
2013-02-11 10:59:00,41.3,29.0,30.18,West,277,9.0,21.0,62,0.00,,,0.00,weatherlink.com 1.10,2013-02-11 16:59:00,
2013-02-11 11:14:00,41.6,28.0,30.18,NW,316,9.0,15.0,60,0.00,,,0.00,weatherlink.com 1.10,2013-02-11 17:14:00,
2013-02-11 11:29:00,43.3,30.0,30.19,NW,309,11.0,11.0,61,0.00,,,0.00,weatherlink.com 1.10,2013-02-11 17:29:00,
2013-02-11 11:44:00,43.9,30.0,30.19,WNW,287,10.0,14.0,58,0.00,,,0.00,weatherlink.com 1.10,2013-02-11 17:44:00,
2013-02-11 11:59:00,43.9,29.0,30.18,NNW,327,6.0,16.0,56,0.00,,,0.00,weatherlink.com 1.10,2013-02-11 17:59:00,
2013-02-11 12:14:00,44.3,29.0,30.18,WNW,301,8.0,14.0,56,0.00,,,0.00,weatherlink.com 1.10,2013-02-11 18:14:00,
2013-02-11 12:29:00,46.0,29.0,30.18,West,259,8.0,15.0,52,0.00,,,0.00,weatherlink.com 1.10,2013-02-11 18:29:00,
2013-02-11 12:44:00,46.0,29.0,30.17,NW,321,7.0,17.0,52,0.00,,,0.00,weatherlink.com 1.10,2013-02-11 18:44:00,
2013-02-11 12:59:00,46.4,29.0,30.16,WNW,282,9.0,17.0,51,0.00,,,0.00,weatherlink.com 1.10,2013-02-11 18:59:00,
2013-02-11 13:14:00,46.1,27.0,30.16,West,281,6.0,17.0,48,0.00,,,0.00,weatherlink.com 1.10,2013-02-11 19:14:00,
2013-02-11 13:29:00,47.2,27.0,30.16,NW,305,12.0,16.0,45,0.00,,,0.00,weatherlink.com 1.10,2013-02-11 19:29:00,
2013-02-11 13:44:00,48.3,30.0,30.16,WNW,290,11.0,13.0,50,0.00,,,0.00,weatherlink.com 1.10,2013-02-11 19:44:00,
2013-02-11 13:59:00,47.7,28.0,30.15,WNW,284,13.0,14.0,46,0.00,,,0.00,weatherlink.com 1.10,2013-02-11 19:59:00,
2013-02-11 14:14:00,49.0,29.0,30.15,West,266,7.0,13.0,47,0.00,,,0.00,weatherlink.com 1.10,2013-02-11 20:14:00,
2013-02-11 14:29:00,49.5,28.0,30.15,WNW,293,5.0,15.0,44,0.00,,,0.00,weatherlink.com 1.10,2013-02-11 20:29:00,
2013-02-11 14:44:00,49.4,28.0,30.16,West,263,8.0,13.0,44,0.00,,,0.00,weatherlink.com 1.10,2013-02-11 20:44:00,
2013-02-11 14:59:00,49.5,28.0,30.15,WNW,282,4.0,11.0,44,0.00,,,0.00,weatherlink.com 1.10,2013-02-11 20:59:00,
2013-02-11 15:14:00,49.5,28.0,30.15,North,10,9.0,16.0,43,0.00,,,0.00,weatherlink.com 1.10,2013-02-11 21:14:00,
2013-02-11 15:29:00,49.6,27.0,30.15,South,173,4.0,11.0,41,0.00,,,0.00,weatherlink.com 1.10,2013-02-11 21:29:00,
2013-02-11 15:44:00,49.6,27.0,30.14,WNW,285,2.0,8.0,41,0.00,,,0.00,weatherlink.com 1.10,2013-02-11 21:44:00,
2013-02-11 15:59:00,50.0,28.0,30.14,West,261,7.0,13.0,42,0.00,,,0.00,weatherlink.com 1.10,2013-02-11 21:59:00,
2013-02-11 16:14:00,49.3,27.0,30.14,West,268,8.0,11.0,42,0.00,,,0.00,weatherlink.com 1.10,2013-02-11 22:14:00,
2013-02-11 16:29:00,48.9,27.0,30.14,WSW,248,5.0,10.0,43,0.00,,,0.00,weatherlink.com 1.10,2013-02-11 22:29:00,
2013-02-11 16:44:00,48.8,28.0,30.14,WSW,244,3.0,10.0,44,0.00,,,0.00,weatherlink.com 1.10,2013-02-11 22:44:00,
2013-02-11 16:59:00,48.4,26.0,30.15,West,259,3.0,11.0,42,0.00,,,0.00,weatherlink.com 1.10,2013-02-11 22:59:00,
2013-02-11 17:14:00,47.3,26.0,30.15,West,267,4.0,8.0,44,0.00,,,0.00,weatherlink.com 1.10,2013-02-11 23:14:00,
2013-02-11 17:29:00,46.1,26.0,30.14,WSW,251,3.0,8.0,46,0.00,,,0.00,weatherlink.com 1.10,2013-02-11 23:29:00,
2013-02-11 17:44:00,44.4,26.0,30.15,West,269,4.0,6.0,48,0.00,,,0.00,weatherlink.com 1.10,2013-02-11 23:44:00,
2013-02-11 17:59:00,43.5,26.0,30.15,West,269,2.0,4.0,50,0.00,,,0.00,weatherlink.com 1.10,2013-02-11 23:59:00,
2013-02-11 18:14:00,43.6,26.0,30.15,West,270,0.0,3.0,50,0.00,,,0.00,weatherlink.com 1.10,2013-02-12 00:14:00,
2013-02-11 18:29:00,43.2,26.0,30.15,West,270,0.0,0.0,50,0.00,,,0.00,weatherlink.com 1.10,2013-02-12 00:29:00,
2013-02-11 18:44:00,42.9,26.0,30.16,West,270,0.0,1.0,51,0.00,,,0.00,weatherlink.com 1.10,2013-02-12 00:44:00,
2013-02-11 18:59:00,42.1,26.0,30.16,West,273,3.0,4.0,53,0.00,,,0.00,weatherlink.com 1.10,2013-02-12 00:59:00,
2013-02-11 19:14:00,40.8,26.0,30.17,West,273,1.0,3.0,55,0.00,,,0.00,weatherlink.com 1.10,2013-02-12 01:14:00,
2013-02-11 19:29:00,39.0,26.0,30.17,West,273,1.0,2.0,59,0.00,,,0.00,weatherlink.com 1.10,2013-02-12 01:29:00,
2013-02-11 19:44:00,38.7,25.0,30.17,West,273,2.0,3.0,59,0.00,,,0.00,weatherlink.com 1.10,2013-02-12 01:44:00,
2013-02-11 19:59:00,39.4,26.0,30.17,West,273,2.0,2.0,58,0.00,,,0.00,weatherlink.com 1.10,2013-02-12 01:59:00,
2013-02-11 20:14:00,39.8,25.0,30.17,West,273,0.0,2.0,56,0.00,,,0.00,weatherlink.com 1.10,2013-02-12 02:14:00,
2013-02-11 20:29:00,36.6,25.0,30.18,West,273,3.0,3.0,63,0.00,,,0.00,weatherlink.com 1.10,2013-02-12 02:29:00,
2013-02-11 20:44:00,37.4,25.0,30.18,West,273,2.0,3.0,62,0.00,,,0.00,weatherlink.com 1.10,2013-02-12 02:44:00,
2013-02-11 20:59:00,34.4,26.0,30.18,SW,221,2.0,5.0,70,0.00,,,0.00,weatherlink.com 1.10,2013-02-12 02:59:00,
2013-02-11 21:14:00,36.2,25.0,30.18,SW,219,2.0,3.0,64,0.00,,,0.00,weatherlink.com 1.10,2013-02-12 03:14:00,
2013-02-11 21:29:00,33.7,25.0,30.19,SSW,205,3.0,5.0,70,0.00,,,0.00,weatherlink.com 1.10,2013-02-12 03:29:00,
2013-02-11 21:44:00,35.2,24.0,30.19,SSW,205,2.0,4.0,65,0.00,,,0.00,weatherlink.com 1.10,2013-02-12 03:44:00,
2013-02-11 21:59:00,32.1,24.0,30.19,SSW,203,3.0,4.0,73,0.00,,,0.00,weatherlink.com 1.10,2013-02-12 03:59:00,
2013-02-11 22:14:00,30.9,25.0,30.20,SSW,203,3.0,4.0,77,0.00,,,0.00,weatherlink.com 1.10,2013-02-12 04:14:00,
2013-02-11 22:29:00,32.6,25.0,30.19,SSW,203,1.0,3.0,74,0.00,,,0.00,weatherlink.com 1.10,2013-02-12 04:29:00,
2013-02-11 22:44:00,32.7,25.0,30.19,SSW,203,2.0,3.0,72,0.00,,,0.00,weatherlink.com 1.10,2013-02-12 04:44:00,
2013-02-11 22:59:00,32.6,25.0,30.19,SSW,203,2.0,2.0,73,0.00,,,0.00,weatherlink.com 1.10,2013-02-12 04:59:00,
2013-02-11 23:14:00,32.3,25.0,30.19,SSW,203,2.0,2.0,73,0.00,,,0.00,weatherlink.com 1.10,2013-02-12 05:14:00,
2013-02-11 23:29:00,32.3,25.0,30.20,SSW,203,0.0,2.0,73,0.00,,,0.00,weatherlink.com 1.10,2013-02-12 05:29:00,
2013-02-11 23:44:00,31.5,24.0,30.20,SSW,203,1.0,3.0,74,0.00,,,0.00,weatherlink.com 1.10,2013-02-12 05:44:00,
2013-02-11 23:59:00,31.4,24.0,30.20,SSW,203,2.0,3.0,75,0.00,,,0.00,weatherlink.com 1.10,2013-02-12 05:59:00,